Time;durP1;ratioP1;P1;durP2;ratioP2;P2;SDS_P1;SDS_P2;PMS_P1;PMS_P2;Temp;Humidity;BMP_temperature;BMP_pressure;BME280_temperature;BME280_humidity;BME280_pressure;Samples;Min_cycle;Max_cycle;Signal;HPM_P1;HPM_P2
2022/03/18 00:02:54;;;;;;;;;;;;;;;16.94;56.52;103993.09;6345735;22;19925;-81
2022/03/18 00:05:24;;;;;;;;;;;;;;;16.95;56.42;103993.97;6320517;22;19911;-81
2022/03/18 00:07:49;;;;;;;;;;;;;;;16.97;57.25;104001.03;6321171;22;20326;-81
2022/03/18 00:10:15;;;;;;;;;;;;;;;16.96;57.20;103996.66;6347573;22;19942;-81
2022/03/18 00:12:47;;;;;;;;;;;;;;;16.96;56.74;104008.75;6326409;22;19922;-81
2022/03/18 00:15:14;;;;;;;;;;;;;;;16.99;56.11;104011.50;6361630;22;19934;-81
2022/03/18 00:17:40;;;;;;;;;;;;;;;17.00;56.91;104013.28;6361390;22;19906;-81
2022/03/18 00:20:06;;;;;;;;;;;;;;;17.01;56.64;104007.25;6336901;22;19926;-81
2022/03/18 00:22:31;;;;;;;;;;;;;;;16.99;56.91;104007.19;6360528;22;19920;-81
2022/03/18 00:24:56;;;;;;;;;;;;;;;17.00;56.09;104011.56;6325861;22;19907;-81
2022/03/18 00:27:23;;;;;;;;;;;;;;;17.00;55.97;104023.69;6353044;22;19910;-81
2022/03/18 00:29:48;;;;;;;;;;;;;;;17.01;56.81;104028.97;6325954;22;19906;-81
2022/03/18 00:32:15;;;;;;;;;;;;;;;17.01;56.04;104021.16;6298573;22;19918;-81
2022/03/18 00:34:40;;;;;;;;;;;;;;;17.00;56.37;104027.16;6351196;22;19914;-81
2022/03/18 00:37:07;;;;;;;;;;;;;;;17.01;55.99;104021.16;6322474;22;19907;-81
2022/03/18 00:39:32;;;;;;;;;;;;;;;17.02;56.45;104028.13;6322346;22;19914;-81
2022/03/18 00:41:57;;;;;;;;;;;;;;;17.03;55.67;104024.72;6322107;22;19906;-81
2022/03/18 00:44:25;;;;;;;;;;;;;;;17.04;55.67;104030.78;6296484;22;19962;-81
2022/03/18 00:46:55;;;;;;;;;;;;;;;17.05;55.55;104028.28;6351373;22;19950;-81
2022/03/18 00:52:05;;;;;;;;;;;;;;;17.05;55.15;104028.28;6348934;22;19929;-81
2022/03/18 00:54:35;;;;;;;;;;;;;;;17.05;55.22;104023.06;6322413;22;19906;-81
2022/03/18 00:57:01;;;;;;;;;;;;;;;17.04;55.65;104023.88;6360090;22;19890;-81
2022/03/18 00:59:27;;;;;;;;;;;;;;;17.04;55.26;104017.78;6327661;22;19917;-81
2022/03/18 01:01:52;;;;;;;;;;;;;;;17.05;55.53;104028.28;6318123;22;20335;-81
2022/03/18 01:04:25;;;;;;;;;;;;;;;17.07;55.17;104033.50;6318297;22;19915;-81
2022/03/18 01:06:52;;;;;;;;;;;;;;;17.06;55.55;104026.56;6320066;22;19907;-81
2022/03/18 01:09:18;;;;;;;;;;;;;;;17.05;55.14;104025.66;6318927;22;19907;-81
2022/03/18 01:11:43;;;;;;;;;;;;;;;17.06;55.23;104035.25;6319247;22;19955;-81
2022/03/18 01:14:09;;;;;;;;;;;;;;;17.08;55.23;104042.25;6319793;22;19911;-81
2022/03/18 01:16:34;;;;;;;;;;;;;;;17.08;55.18;104032.72;6317707;22;19907;-81
2022/03/18 01:19:01;;;;;;;;;;;;;;;17.10;54.79;104031.06;6317182;22;19907;-81
2022/03/18 01:21:26;;;;;;;;;;;;;;;17.12;54.78;104036.34;6318271;22;19954;-81
2022/03/18 01:23:51;;;;;;;;;;;;;;;17.13;54.47;104032.91;6317333;22;19907;-82
2022/03/18 05:50:57;;;;;;;;;;;;;;;17.17;49.99;104220.47;6329452;22;19922;-82
2022/03/18 05:59:31;;;;;;;;;;;;;;;17.16;49.97;104220.41;6358537;22;19917;-83
2022/03/18 06:02:04;;;;;;;;;;;;;;;17.17;49.94;104233.50;6354185;22;19906;-79
2022/03/18 06:04:31;;;;;;;;;;;;;;;17.18;50.14;104239.59;6321099;22;19949;-80
2022/03/18 06:06:57;;;;;;;;;;;;;;;17.17;50.09;104236.09;6349532;22;19907;-80
2022/03/18 06:12:09;;;;;;;;;;;;;;;17.19;50.13;104234.47;6294018;22;19909;-81
2022/03/18 06:14:35;;;;;;;;;;;;;;;17.22;49.90;104249.31;6348225;22;19911;-80
2022/03/18 06:17:19;;;;;;;;;;;;;;;17.27;50.15;104248.72;6357313;22;19914;-80
2022/03/18 06:19:52;;;;;;;;;;;;;;;17.31;50.40;104254.97;6351893;22;19930;-81
2022/03/18 06:22:51;;;;;;;;;;;;;;;17.41;50.05;104251.94;6327470;22;20319;-81
2022/03/18 06:25:16;;;;;;;;;;;;;;;17.44;50.23;104256.41;6327930;22;19913;-79
2022/03/18 06:27:42;;;;;;;;;;;;;;;17.46;49.91;104268.69;6300194;22;19968;-78
2022/03/18 06:30:07;;;;;;;;;;;;;;;17.47;49.93;104270.47;6347727;22;20378;-79
2022/03/18 06:32:34;;;;;;;;;;;;;;;17.49;49.51;104262.72;6347624;22;19942;-79
2022/03/18 06:34:59;;;;;;;;;;;;;;;17.51;49.81;104273.19;6326072;22;19933;-79
2022/03/18 06:37:26;;;;;;;;;;;;;;;17.56;49.61;104271.69;6292220;22;19910;-77
2022/03/18 06:39:51;;;;;;;;;;;;;;;17.60;49.64;104265.81;6316647;22;19914;-78
2022/03/18 06:42:16;;;;;;;;;;;;;;;17.60;49.59;104271.91;6345045;22;19910;-77
2022/03/18 06:44:42;;;;;;;;;;;;;;;17.61;49.64;104283.22;6317586;22;19907;-78
2022/03/18 06:47:07;;;;;;;;;;;;;;;17.64;49.37;104281.66;6292119;22;19910;-78
2022/03/18 06:49:32;;;;;;;;;;;;;;;17.66;49.66;104272.19;6299266;22;19915;-79
2022/03/18 06:51:59;;;;;;;;;;;;;;;17.67;49.59;104280.88;6302586;22;19918;-80
2022/03/18 06:54:24;;;;;;;;;;;;;;;17.68;49.72;104278.34;6300436;22;19941;-78
2022/03/18 06:56:49;;;;;;;;;;;;;;;17.69;49.66;104284.44;6296186;22;19952;-78
2022/03/18 06:59:14;;;;;;;;;;;;;;;17.72;49.76;104286.28;6319854;22;19957;-78
2022/03/18 07:01:39;;;;;;;;;;;;;;;17.75;49.73;104289.06;6299109;22;19993;-77
2022/03/18 07:04:05;;;;;;;;;;;;;;;17.81;49.47;104292.81;6303895;22;19911;-80
2022/03/18 07:06:30;;;;;;;;;;;;;;;17.92;49.29;104293.34;6329104;22;19964;-78
2022/03/18 07:08:55;;;;;;;;;;;;;;;18.05;48.90;104290.44;6320912;22;20243;-78
2022/03/18 07:24:17;;;;;;;;;;;;;;;19.32;46.03;104312.16;6291293;22;19919;-85
2022/03/18 07:26:42;;;;;;;;;;;;;;;19.42;45.81;104319.47;6367191;22;19922;-83
2022/03/18 07:29:07;;;;;;;;;;;;;;;19.44;45.86;104325.66;6331688;22;19929;-86
2022/03/18 07:31:32;;;;;;;;;;;;;;;19.46;45.60;104330.94;6332771;22;19981;-86
2022/03/18 07:33:58;;;;;;;;;;;;;;;19.48;45.70;104335.38;6321784;22;19906;-85
2022/03/18 07:36:23;;;;;;;;;;;;;;;19.55;45.52;104333.00;6290115;22;19910;-86
2022/03/18 07:38:48;;;;;;;;;;;;;;;19.53;45.60;104338.16;6288728;22;20239;-86
2022/03/18 07:41:13;;;;;;;;;;;;;;;19.75;44.90;104339.91;6313922;22;19915;-86
2022/03/18 07:43:39;;;;;;;;;;;;;;;19.62;45.31;104353.31;6288213;22;20049;-87
2022/03/18 07:46:04;;;;;;;;;;;;;;;19.23;46.17;104354.47;6287793;22;19911;-84
2022/03/18 07:48:29;;;;;;;;;;;;;;;18.61;47.77;104361.47;6303045;22;19906;-83
2022/03/18 08:06:39;;;;;;;;;;;;;;;19.07;46.71;104389.47;6336593;22;19918;-86
2022/03/18 08:09:04;;;;;;;;;;;;;;;19.14;46.53;104384.50;6364988;22;19964;-83
2022/03/18 08:11:30;;;;;;;;;;;;;;;19.11;46.58;104390.50;6350662;22;20311;-83
2022/03/18 08:13:55;;;;;;;;;;;;;;;19.11;46.59;104393.13;6356140;22;19911;-83
2022/03/18 08:16:38;;;;;;;;;;;;;;;19.00;47.25;104390.06;6338161;22;19911;-82
2022/03/18 08:19:04;;;;;;;;;;;;;;;18.98;47.03;104396.94;6339731;22;19942;-85
2022/03/18 10:03:54;;;;;;;;;;;;;;;18.19;48.67;104514.31;6287517;22;20839;-85
2022/03/18 10:06:27;;;;;;;;;;;;;;;18.17;48.79;104513.34;6260699;22;19923;-84
2022/03/18 10:20:50;;;;;;;;;;;;;;;18.14;48.92;104505.38;6317273;22;19913;-87
2022/03/18 10:23:16;;;;;;;;;;;;;;;18.13;48.95;104509.72;6341573;22;19918;-86
2022/03/18 10:25:50;;;;;;;;;;;;;;;18.13;48.55;104501.00;6341745;22;19921;-87
2022/03/18 10:28:32;;;;;;;;;;;;;;;18.12;48.65;104507.94;6341568;22;19955;-87
2022/03/18 10:31:21;;;;;;;;;;;;;;;18.13;48.58;104501.00;6341438;22;19895;-87
2022/03/18 10:39:23;;;;;;;;;;;;;;;18.12;48.87;104507.94;6368015;22;19918;-87
2022/03/18 10:41:49;;;;;;;;;;;;;;;18.12;48.64;104513.16;6341267;22;19915;-86
2022/03/18 10:44:17;;;;;;;;;;;;;;;18.12;48.56;104507.94;6341600;22;19894;-88
2022/03/18 10:46:42;;;;;;;;;;;;;;;18.13;48.42;104522.75;6367792;22;19921;-87
2022/03/18 10:49:10;;;;;;;;;;;;;;;18.14;48.59;104521.03;6340889;22;19910;-86
2022/03/18 10:51:35;;;;;;;;;;;;;;;18.13;48.57;104525.34;6340995;22;19909;-88
2022/03/18 10:54:01;;;;;;;;;;;;;;;18.13;48.63;104527.94;6368374;22;19914;-87
2022/03/18 10:56:26;;;;;;;;;;;;;;;18.14;48.65;104523.63;6367802;22;19910;-88
2022/03/18 10:58:52;;;;;;;;;;;;;;;18.14;48.95;104528.84;6341286;22;19898;-88
2022/03/18 11:16:48;;;;;;;;;;;;;;;18.13;48.69;104543.59;6300935;22;20155;-81
2022/03/18 12:34:15;;;;;;;;;;;;;;;18.26;47.67;104526.81;6330413;22;19945;-88
2022/03/18 12:36:43;;;;;;;;;;;;;;;18.28;47.67;104527.78;6342752;22;19915;-88
2022/03/18 12:39:11;;;;;;;;;;;;;;;18.28;47.71;104527.78;6369094;22;19944;-88
2022/03/18 12:41:37;;;;;;;;;;;;;;;18.29;47.62;104522.66;6369424;22;19921;-88
2022/03/18 13:20:24;;;;;;;;;;;;;;;18.40;47.20;104510.09;6308898;22;19941;-78
2022/03/18 13:22:52;;;;;;;;;;;;;;;18.39;47.28;104500.47;6311779;22;19907;-79
2022/03/18 13:25:18;;;;;;;;;;;;;;;18.39;47.33;104502.19;6334515;22;19937;-86
2022/03/18 13:27:43;;;;;;;;;;;;;;;18.39;47.36;104499.59;6336835;22;19963;-89
2022/03/18 13:53:36;;;;;;;;;;;;;;;18.44;47.29;104487.63;6291454;22;19925;-79
2022/03/18 13:56:13;;;;;;;;;;;;;;;18.44;47.16;104487.63;6286293;22;19907;-79
2022/03/18 13:58:38;;;;;;;;;;;;;;;18.44;47.27;104485.94;6289333;22;19951;-79
2022/03/18 14:01:17;;;;;;;;;;;;;;;18.45;47.24;104499.88;6287668;22;20341;-80
2022/03/18 14:03:43;;;;;;;;;;;;;;;18.44;47.33;104488.56;6286412;22;19930;-80
2022/03/18 14:06:09;;;;;;;;;;;;;;;18.45;47.47;104484.22;6287549;22;19952;-80
2022/03/18 14:08:39;;;;;;;;;;;;;;;18.46;47.27;104496.41;6287010;22;19946;-79
2022/03/18 14:12:08;;;;;;;;;;;;;;;18.46;47.33;104488.59;6286729;22;20239;-80
2022/03/18 14:13:50;;;;;;;;;;;;;;;18.47;47.28;104491.28;6290185;22;20242;-80
2022/03/18 14:16:15;;;;;;;;;;;;;;;18.48;47.23;104494.78;6260136;22;19918;-80
2022/03/18 14:18:41;;;;;;;;;;;;;;;18.48;47.26;104486.94;6258554;22;19911;-80
2022/03/18 14:21:07;;;;;;;;;;;;;;;18.47;47.20;104488.69;6260037;22;19915;-80
2022/03/18 14:23:35;;;;;;;;;;;;;;;18.48;47.13;104482.63;6258164;22;19918;-80
2022/03/18 14:26:05;;;;;;;;;;;;;;;18.49;47.20;104486.16;6284570;22;19911;-79
2022/03/18 14:28:30;;;;;;;;;;;;;;;18.51;47.06;104489.72;6285026;22;20349;-80
2022/03/18 14:30:56;;;;;;;;;;;;;;;18.52;47.63;104490.59;6286483;22;19968;-80
2022/03/18 14:33:22;;;;;;;;;;;;;;;18.52;47.35;104488.88;6288495;22;19964;-80
2022/03/18 14:35:49;;;;;;;;;;;;;;;18.53;47.25;104492.38;6287223;22;20083;-80
2022/03/18 14:38:14;;;;;;;;;;;;;;;18.53;47.21;104490.69;6285241;22;19907;-80
2022/03/18 14:40:39;;;;;;;;;;;;;;;18.54;47.09;104486.34;6285091;22;19915;-80
2022/03/18 14:43:06;;;;;;;;;;;;;;;18.55;47.18;104482.91;6284847;22;19910;-80
2022/03/18 14:45:32;;;;;;;;;;;;;;;18.53;47.27;104488.06;6284489;22;19907;-80
2022/03/18 14:47:58;;;;;;;;;;;;;;;18.53;47.14;104479.34;6258342;22;19964;-80
2022/03/18 14:50:23;;;;;;;;;;;;;;;18.54;47.08;104489.84;6283711;22;20316;-80
2022/03/18 14:52:48;;;;;;;;;;;;;;;18.56;47.25;104479.50;6284604;22;19961;-80
2022/03/18 14:57:58;;;;;;;;;;;;;;;18.57;47.11;104479.53;6312096;22;20402;-79
2022/03/18 15:00:23;;;;;;;;;;;;;;;18.57;47.19;104478.66;6284093;22;19915;-78
2022/03/18 15:02:48;;;;;;;;;;;;;;;18.56;47.16;104485.59;6258913;22;19915;-79
2022/03/18 15:05:15;;;;;;;;;;;;;;;18.57;47.17;104495.19;6283773;22;19957;-79
2022/03/18 15:07:41;;;;;;;;;;;;;;;18.58;47.32;104483.06;6283443;22;19930;-80
2022/03/18 15:10:07;;;;;;;;;;;;;;;18.57;47.32;104481.25;6258180;22;19934;-79
2022/03/18 15:32:29;;;;;;;;;;;;;;;18.56;47.39;104469.06;6298496;22;19923;-86
2022/03/18 15:49:41;;;;;;;;;;;;;;;18.53;47.45;104474.13;6304896;22;20296;-79
2022/03/18 15:52:11;;;;;;;;;;;;;;;18.52;47.33;104474.94;6294456;22;19914;-79
2022/03/18 15:54:37;;;;;;;;;;;;;;;18.52;47.40;104470.63;6320910;22;19906;-78
2022/03/18 15:57:02;;;;;;;;;;;;;;;18.50;47.43;104470.53;6321734;22;19918;-79
2022/03/18 15:59:27;;;;;;;;;;;;;;;18.50;47.45;104478.38;6320085;22;20319;-79
2022/03/18 16:01:53;;;;;;;;;;;;;;;18.51;47.43;104479.28;6294386;22;19917;-79
2022/03/18 16:04:18;;;;;;;;;;;;;;;18.51;47.58;104476.69;6293827;22;19930;-79
2022/03/18 16:11:54;;;;;;;;;;;;;;;18.49;47.52;104471.38;6306011;22;19918;-85
2022/03/18 16:14:19;;;;;;;;;;;;;;;18.50;47.27;104469.66;6312940;22;20246;-85
2022/03/18 16:16:46;;;;;;;;;;;;;;;18.49;47.29;104476.59;6287164;22;19917;-86
2022/03/18 16:19:12;;;;;;;;;;;;;;;18.49;47.46;104468.78;6287546;22;20212;-85
2022/03/18 16:21:38;;;;;;;;;;;;;;;18.48;47.44;104466.97;6313071;22;19963;-85
2022/03/18 16:24:05;;;;;;;;;;;;;;;18.47;47.39;104473.03;6341018;22;20040;-86
2022/03/18 16:26:30;;;;;;;;;;;;;;;18.47;47.29;104460.00;6313615;22;19968;-84
2022/03/18 16:28:58;;;;;;;;;;;;;;;18.47;47.27;104466.94;6286953;22;19915;-85
2022/03/18 16:31:23;;;;;;;;;;;;;;;18.46;47.43;104470.34;6313173;22;19911;-85
2022/03/18 16:33:52;;;;;;;;;;;;;;;18.45;47.43;104474.69;6317808;22;20277;-86
2022/03/18 16:36:17;;;;;;;;;;;;;;;18.44;47.35;104475.50;6313118;22;19915;-86
2022/03/18 16:38:42;;;;;;;;;;;;;;;18.45;47.58;104476.41;6286779;22;19985;-85
2022/03/18 16:41:08;;;;;;;;;;;;;;;18.42;47.34;104471.03;6312762;22;19926;-86
2022/03/18 16:43:34;;;;;;;;;;;;;;;18.42;47.50;104465.81;6312696;22;19911;-85
2022/03/18 16:51:27;;;;;;;;;;;;;;;18.41;47.49;104479.69;6317025;22;19956;-85
2022/03/18 16:53:54;;;;;;;;;;;;;;;18.42;47.45;104476.25;6286737;22;20315;-86
2022/03/18 16:56:19;;;;;;;;;;;;;;;18.40;47.46;104478.81;6312797;22;20292;-86
2022/03/18 16:58:44;;;;;;;;;;;;;;;18.39;47.60;104478.72;6287308;22;19970;-85
2022/03/18 17:03:36;;;;;;;;;;;;;;;18.37;47.46;104476.03;6315094;22;19918;-85
2022/03/18 17:06:03;;;;;;;;;;;;;;;18.37;47.38;104481.25;6289217;22;19981;-84
2022/03/18 17:08:28;;;;;;;;;;;;;;;18.35;47.54;104482.91;6314833;22;19941;-86
2022/03/18 17:10:54;;;;;;;;;;;;;;;18.35;47.60;104482.91;6288782;22;19911;-85
2022/03/18 17:13:19;;;;;;;;;;;;;;;18.36;47.52;104491.63;6314641;22;19914;-85
2022/03/18 17:15:46;;;;;;;;;;;;;;;18.35;47.58;104485.50;6341812;22;19946;-86
2022/03/18 17:18:11;;;;;;;;;;;;;;;18.33;47.62;104484.53;6288783;22;20324;-85
2022/03/18 17:20:36;;;;;;;;;;;;;;;18.33;47.59;104489.75;6314167;22;19907;-85
2022/03/18 17:23:02;;;;;;;;;;;;;;;18.32;47.59;104485.38;6314594;22;19914;-85
2022/03/18 17:25:27;;;;;;;;;;;;;;;18.30;47.87;104494.84;6288401;22;19933;-84
2022/03/18 17:27:52;;;;;;;;;;;;;;;18.31;47.88;104501.84;6314236;22;19910;-85
2022/03/18 17:30:17;;;;;;;;;;;;;;;18.28;47.74;104502.59;6314506;22;19911;-85
2022/03/18 17:32:43;;;;;;;;;;;;;;;18.27;47.68;104502.53;6314381;22;19942;-84
2022/03/18 17:35:08;;;;;;;;;;;;;;;18.27;47.87;104492.13;6314279;22;19933;-85
2022/03/18 17:37:34;;;;;;;;;;;;;;;18.25;47.80;104502.47;6315857;22;19910;-85
2022/03/18 17:39:59;;;;;;;;;;;;;;;18.25;47.68;104501.56;6325512;22;19907;-86
2022/03/18 17:42:24;;;;;;;;;;;;;;;18.24;47.80;104507.59;6298280;22;19922;-86
2022/03/18 17:44:50;;;;;;;;;;;;;;;18.22;47.82;104507.53;6325931;22;19917;-85
2022/03/18 17:47:16;;;;;;;;;;;;;;;18.23;47.83;104509.31;6326159;22;19907;-86
2022/03/18 17:49:41;;;;;;;;;;;;;;;18.23;47.77;104517.13;6319906;22;20376;-85
2022/03/18 17:52:07;;;;;;;;;;;;;;;18.23;47.83;104516.25;6288545;22;19918;-86
2022/03/18 17:54:32;;;;;;;;;;;;;;;18.21;47.99;104518.78;6342025;22;20326;-85
2022/03/18 17:56:58;;;;;;;;;;;;;;;18.19;47.87;104510.00;6314101;22;19918;-86
2022/03/18 17:59:23;;;;;;;;;;;;;;;18.20;47.97;104521.31;6313935;22;19911;-85
2022/03/18 18:01:50;;;;;;;;;;;;;;;18.18;47.85;104521.25;6288113;22;19910;-87
2022/03/18 18:04:15;;;;;;;;;;;;;;;18.17;47.97;104514.25;6314036;22;19919;-85
2022/03/18 18:06:41;;;;;;;;;;;;;;;18.17;47.94;104522.06;6314463;22;19911;-86
2022/03/18 18:09:07;;;;;;;;;;;;;;;18.17;48.10;104523.78;6341654;22;19911;-84
2022/03/18 18:11:33;;;;;;;;;;;;;;;18.16;47.99;104527.19;6341205;22;19936;-85
2022/03/18 18:14:04;;;;;;;;;;;;;;;18.16;48.10;104528.13;6314306;22;19910;-83
2022/03/18 18:16:30;;;;;;;;;;;;;;;18.16;48.05;104530.72;6314727;22;19923;-85
2022/03/18 18:18:55;;;;;;;;;;;;;;;18.16;48.23;104529.81;6350464;22;19914;-86
2022/03/18 18:24:05;;;;;;;;;;;;;;;18.14;48.16;104532.38;6348906;22;19960;-85
2022/03/18 18:26:30;;;;;;;;;;;;;;;18.14;48.04;104540.19;6315514;22;19910;-86
2022/03/18 18:28:56;;;;;;;;;;;;;;;18.13;47.96;104547.91;6314492;22;19910;-85
2022/03/18 18:31:21;;;;;;;;;;;;;;;18.14;47.96;104549.69;6288222;22;19946;-85
2022/03/18 18:33:47;;;;;;;;;;;;;;;18.12;47.98;104549.66;6341476;22;20242;-85
2022/03/18 18:36:13;;;;;;;;;;;;;;;18.13;48.19;104548.81;6341170;22;19911;-85
2022/03/18 18:38:39;;;;;;;;;;;;;;;18.12;48.06;104552.25;6341831;22;19906;-84
2022/03/18 18:41:05;;;;;;;;;;;;;;;18.13;48.28;104558.34;6287689;22;20010;-85
2022/03/18 18:43:31;;;;;;;;;;;;;;;18.12;48.24;104557.47;6313468;22;19918;-85
2022/03/18 18:45:56;;;;;;;;;;;;;;;18.13;48.18;104560.94;6313785;22;19906;-85
2022/03/18 18:48:21;;;;;;;;;;;;;;;18.11;48.14;104568.69;6315104;22;19911;-84
2022/03/18 18:50:47;;;;;;;;;;;;;;;18.11;48.13;104566.09;6287860;22;19960;-85
2022/03/18 18:53:12;;;;;;;;;;;;;;;18.11;48.28;104570.41;6341244;22;20303;-84
2022/03/18 18:55:38;;;;;;;;;;;;;;;18.11;47.94;104573.03;6313316;22;19912;-85
2022/03/18 18:58:04;;;;;;;;;;;;;;;18.09;48.45;104576.47;6287892;22;19911;-84
2022/03/18 19:00:29;;;;;;;;;;;;;;;18.09;48.14;104572.94;6314238;22;19917;-84
2022/03/18 19:02:57;;;;;;;;;;;;;;;18.09;47.99;104580.75;6341069;22;19918;-83
2022/03/18 19:05:23;;;;;;;;;;;;;;;18.09;48.08;104578.16;6313514;22;19914;-83
2022/03/18 19:07:49;;;;;;;;;;;;;;;18.09;48.05;104584.28;6313444;22;19907;-86
2022/03/18 19:10:14;;;;;;;;;;;;;;;18.08;47.87;104577.25;6287746;22;20319;-85
2022/03/18 19:12:40;;;;;;;;;;;;;;;18.09;48.19;104585.97;6313029;22;20028;-85
2022/03/18 19:15:06;;;;;;;;;;;;;;;18.09;48.14;104585.97;6287342;22;20335;-85
2022/03/18 19:17:32;;;;;;;;;;;;;;;18.07;48.19;104580.72;6313228;22;20231;-84
2022/03/18 19:19:57;;;;;;;;;;;;;;;18.07;48.09;104585.91;6313000;22;19994;-83
2022/03/18 19:22:22;;;;;;;;;;;;;;;18.08;48.23;104581.59;6287469;22;20010;-85
2022/03/18 19:24:49;;;;;;;;;;;;;;;18.07;48.19;104583.31;6287493;22;20282;-84
2022/03/18 19:27:15;;;;;;;;;;;;;;;18.07;48.04;104582.41;6313210;22;19956;-84
2022/03/18 19:29:40;;;;;;;;;;;;;;;18.06;48.27;104589.34;6314282;22;19948;-86
2022/03/18 19:34:50;;;;;;;;;;;;;;;18.05;48.21;104589.25;6342790;22;19914;-84
2022/03/18 19:37:15;;;;;;;;;;;;;;;18.05;48.21;104592.78;6314338;22;19906;-85
2022/03/18 19:39:40;;;;;;;;;;;;;;;18.05;48.21;104586.63;6287318;22;19910;-84
2022/03/18 19:42:06;;;;;;;;;;;;;;;18.05;47.97;104579.75;6313190;22;19967;-85
2022/03/18 19:44:31;;;;;;;;;;;;;;;18.04;47.90;104577.94;6287630;22;19911;-85
2022/03/18 19:46:56;;;;;;;;;;;;;;;18.04;48.23;104585.75;6312872;22;19911;-84
2022/03/18 19:49:22;;;;;;;;;;;;;;;18.05;48.17;104589.25;6340633;22;19914;-84
2022/03/18 19:51:47;;;;;;;;;;;;;;;18.05;48.22;104597.06;6312864;22;19906;-85
2022/03/18 19:54:12;;;;;;;;;;;;;;;18.04;48.07;104598.78;6287179;22;20235;-84
2022/03/18 20:02:07;;;;;;;;;;;;;;;18.03;48.03;104610.03;6317744;22;20002;-84
2022/03/18 20:04:33;;;;;;;;;;;;;;;18.03;48.06;104604.84;6349089;22;19910;-84
2022/03/18 20:06:58;;;;;;;;;;;;;;;18.03;47.91;104603.91;6294704;22;19911;-85
2022/03/18 20:09:24;;;;;;;;;;;;;;;18.03;48.07;104611.72;6289567;22;19911;-84
2022/03/18 20:11:49;;;;;;;;;;;;;;;18.02;48.16;104610.84;6312969;22;20216;-83
2022/03/18 20:14:17;;;;;;;;;;;;;;;18.02;48.13;104618.66;6340601;22;19915;-85
2022/03/18 20:16:44;;;;;;;;;;;;;;;18.01;48.04;104622.09;6313602;22;19915;-85
2022/03/18 20:19:10;;;;;;;;;;;;;;;18.02;47.99;104623.88;6287351;22;19915;-83
2022/03/18 20:21:35;;;;;;;;;;;;;;;18.02;48.19;104623.00;6312683;22;19967;-85
2022/03/18 20:24:00;;;;;;;;;;;;;;;18.02;48.11;104628.22;6287406;22;19911;-84
2022/03/18 20:26:25;;;;;;;;;;;;;;;18.01;47.98;104629.03;6312739;22;19915;-84
2022/03/18 20:28:51;;;;;;;;;;;;;;;18.00;48.10;104628.13;6286801;22;19911;-84
2022/03/18 20:31:18;;;;;;;;;;;;;;;18.01;47.98;104631.66;6340685;22;19911;-84
2022/03/18 20:33:43;;;;;;;;;;;;;;;18.00;48.08;104632.44;6341408;22;19974;-83
2022/03/18 20:36:08;;;;;;;;;;;;;;;18.00;47.81;104633.34;6288815;22;20358;-83
2022/03/18 20:38:34;;;;;;;;;;;;;;;18.00;48.12;104646.38;6288986;22;19911;-84
2022/03/18 20:40:59;;;;;;;;;;;;;;;18.00;48.02;104638.53;6342066;22;19914;-83
2022/03/18 20:43:24;;;;;;;;;;;;;;;18.00;48.12;104637.66;6315121;22;19907;-82
2022/03/18 20:45:51;;;;;;;;;;;;;;;17.99;47.92;104636.78;6314999;22;19910;-85
2022/03/18 20:48:16;;;;;;;;;;;;;;;17.99;48.15;104639.38;6314648;22;19982;-84
2022/03/18 20:50:42;;;;;;;;;;;;;;;17.99;47.95;104643.72;6314742;22;19911;-85
2022/03/18 20:53:07;;;;;;;;;;;;;;;17.99;48.04;104641.09;6315126;22;19907;-85
2022/03/18 20:55:33;;;;;;;;;;;;;;;17.99;47.88;104648.91;6342310;22;19911;-84
2022/03/18 20:57:58;;;;;;;;;;;;;;;17.98;48.10;104648.00;6342257;22;19914;-84
2022/03/18 21:00:24;;;;;;;;;;;;;;;17.97;47.96;104643.63;6316106;22;19917;-85
2022/03/18 21:02:51;;;;;;;;;;;;;;;17.98;48.03;104641.91;6343730;22;19906;-84
2022/03/18 21:05:16;;;;;;;;;;;;;;;17.98;48.00;104653.22;6325170;22;19906;-85
2022/03/18 21:07:47;;;;;;;;;;;;;;;17.98;47.92;104649.72;6326523;22;19910;-85
2022/03/18 21:10:13;;;;;;;;;;;;;;;17.98;47.80;104648.00;6350080;22;20271;-85
2022/03/18 21:12:38;;;;;;;;;;;;;;;17.96;48.13;104649.63;6292104;22;19919;-85
2022/03/18 21:15:04;;;;;;;;;;;;;;;17.97;47.89;104647.94;6315004;22;19932;-85
2022/03/18 21:17:29;;;;;;;;;;;;;;;17.97;48.06;104650.56;6288681;22;19914;-84
2022/03/18 21:19:59;;;;;;;;;;;;;;;17.95;48.01;104637.44;6314296;22;20342;-84
2022/03/18 21:22:26;;;;;;;;;;;;;;;17.96;47.86;104643.53;6342166;22;20212;-84
2022/03/18 21:24:52;;;;;;;;;;;;;;;17.95;47.76;104644.38;6342148;22;20286;-85
2022/03/18 21:32:49;;;;;;;;;;;;;;;17.94;47.76;104651.28;6318153;22;19953;-84
2022/03/18 21:35:15;;;;;;;;;;;;;;;17.93;47.88;104646.88;6288076;22;19915;-84
2022/03/18 21:37:40;;;;;;;;;;;;;;;17.94;47.91;104645.16;6288373;22;19941;-84
2022/03/18 21:40:05;;;;;;;;;;;;;;;17.92;47.92;104639.91;6314073;22;19918;-84
2022/03/18 21:42:31;;;;;;;;;;;;;;;17.93;47.80;104648.63;6341588;22;19933;-83
2022/03/18 21:44:57;;;;;;;;;;;;;;;17.93;47.77;104651.22;6288318;22;19911;-83
2022/03/18 21:47:23;;;;;;;;;;;;;;;17.93;47.98;104657.31;6288931;22;19918;-83
2022/03/18 21:49:48;;;;;;;;;;;;;;;17.93;47.74;104653.81;6289583;22;19911;-85
2022/03/18 21:52:14;;;;;;;;;;;;;;;17.92;47.94;104657.22;6341902;22;19917;-84
2022/03/18 21:54:40;;;;;;;;;;;;;;;17.92;47.89;104649.41;6288349;22;19911;-84
2022/03/18 21:57:05;;;;;;;;;;;;;;;17.91;47.74;104658.06;6313717;22;19906;-84
2022/03/18 21:59:30;;;;;;;;;;;;;;;17.91;47.78;104658.06;6313638;22;19910;-84
2022/03/18 22:01:56;;;;;;;;;;;;;;;17.91;47.71;104656.34;6313943;22;19919;-84
2022/03/18 22:04:21;;;;;;;;;;;;;;;17.90;47.83;104651.97;6313671;22;19960;-83
2022/03/18 22:06:46;;;;;;;;;;;;;;;17.89;47.84;104651.03;6288114;22;20392;-83
2022/03/18 22:09:12;;;;;;;;;;;;;;;17.89;47.86;104647.56;6313684;22;20285;-83
2022/03/18 22:11:37;;;;;;;;;;;;;;;17.89;47.64;104651.03;6287394;22;19919;-84
2022/03/18 22:14:02;;;;;;;;;;;;;;;17.89;47.66;104655.38;6313618;22;19911;-84
2022/03/18 22:16:28;;;;;;;;;;;;;;;17.89;47.65;104657.97;6313749;22;20315;-84
2022/03/18 22:18:53;;;;;;;;;;;;;;;17.87;47.79;104652.69;6341281;22;19981;-84
2022/03/18 22:21:18;;;;;;;;;;;;;;;17.88;47.77;104658.81;6313633;22;19917;-83
2022/03/18 22:23:44;;;;;;;;;;;;;;;17.87;47.61;104657.88;6287484;22;19989;-84
2022/03/18 22:26:10;;;;;;;;;;;;;;;17.86;47.73;104648.31;6313965;22;19918;-84
2022/03/18 22:28:35;;;;;;;;;;;;;;;17.86;47.89;104650.91;6341351;22;19985;-83
2022/03/18 22:31:00;;;;;;;;;;;;;;;17.86;47.79;104648.31;6287878;22;19972;-84
2022/03/18 22:33:25;;;;;;;;;;;;;;;17.86;47.97;104637.00;6313696;22;19914;-84
2022/03/18 22:35:51;;;;;;;;;;;;;;;17.85;47.67;104637.78;6313974;22;20043;-84
2022/03/18 22:38:17;;;;;;;;;;;;;;;17.85;47.53;104640.41;6313546;22;19911;-84
2022/03/18 22:40:42;;;;;;;;;;;;;;;17.84;47.62;104643.84;6340933;22;19917;-83
2022/03/18 22:43:07;;;;;;;;;;;;;;;17.84;47.62;104642.13;6313477;22;19910;-83
2022/03/18 22:45:33;;;;;;;;;;;;;;;17.84;47.72;104636.03;6313622;22;19913;-82
2022/03/18 22:47:59;;;;;;;;;;;;;;;17.83;47.78;104635.13;6287565;22;19933;-83
2022/03/18 22:50:25;;;;;;;;;;;;;;;17.84;47.70;104630.81;6287893;22;20012;-84
2022/03/18 22:52:51;;;;;;;;;;;;;;;17.82;47.69;104630.72;6313544;22;19907;-84
2022/03/18 22:55:16;;;;;;;;;;;;;;;17.83;47.67;104632.53;6313344;22;19917;-83
2022/03/18 22:57:42;;;;;;;;;;;;;;;17.83;47.53;104631.59;6313325;22;19922;-83
2022/03/18 23:00:10;;;;;;;;;;;;;;;17.84;47.41;104623.00;6313522;22;19911;-83
2022/03/18 23:02:40;;;;;;;;;;;;;;;17.82;47.68;104622.91;6314481;22;19914;-83
2022/03/18 23:05:08;;;;;;;;;;;;;;;17.81;47.61;104626.31;6314879;22;19911;-84
2022/03/18 23:07:33;;;;;;;;;;;;;;;17.82;47.64;104622.03;6288206;22;19979;-83
2022/03/18 23:09:58;;;;;;;;;;;;;;;17.81;47.77;104621.09;6313012;22;19910;-78
2022/03/18 23:12:24;;;;;;;;;;;;;;;17.80;47.64;104624.50;6340410;22;19998;-78
2022/03/18 23:14:49;;;;;;;;;;;;;;;17.82;47.63;104627.22;6340574;22;19914;-78